Time;durP1;ratioP1;P1;durP2;ratioP2;P2;SDS_P1;SDS_P2;PMS_P1;PMS_P2;Temp;Humidity;BMP_temperature;BMP_pressure;BME280_temperature;BME280_humidity;BME280_pressure;Samples;Min_cycle;Max_cycle;Signal;HPM_P1;HPM_P2
2021/09/05 00:02:19;;;;;;;27.27;16.17;;;;;;;12.16;100.00;101313.09;5053190;28;20063;-70
2021/09/05 00:04:46;;;;;;;28.48;17.23;;;;;;;12.26;100.00;101309.00;5059863;28;20628;-72
2021/09/05 00:07:14;;;;;;;31.88;17.52;;;;;;;12.20;100.00;101314.59;5036515;28;20085;-72
2021/09/05 00:09:41;;;;;;;34.05;18.33;;;;;;;12.04;100.00;101309.31;5048384;28;20131;-71
2021/09/05 00:12:09;;;;;;;31.98;17.50;;;;;;;11.89;100.00;101315.44;5037837;28;20086;-71
2021/09/05 00:14:36;;;;;;;30.17;17.33;;;;;;;12.13;100.00;101308.81;5049738;28;20049;-72
2021/09/05 00:17:03;;;;;;;28.50;17.90;;;;;;;11.96;100.00;101308.00;5050371;28;20053;-70
2021/09/05 00:19:31;;;;;;;27.63;17.02;;;;;;;12.13;100.00;101311.44;5064276;28;20052;-71
2021/09/05 00:21:58;;;;;;;33.45;18.90;;;;;;;11.92;100.00;101312.59;5052217;28;20048;-71
2021/09/05 00:24:25;;;;;;;27.70;17.60;;;;;;;11.74;100.00;101309.13;5061370;28;20064;-70
2021/09/05 00:26:52;;;;;;;28.45;19.25;;;;;;;11.73;100.00;101311.84;5073542;28;20147;-69
2021/09/05 00:29:19;;;;;;;30.98;20.45;;;;;;;11.60;100.00;101320.41;5037668;28;20067;-72
2021/09/05 00:31:49;;;;;;;40.42;21.05;;;;;;;11.48;100.00;101313.09;5058005;28;20044;-72
2021/09/05 00:34:17;;;;;;;32.08;18.75;;;;;;;11.65;100.00;101320.16;5053050;28;20083;-69
2021/09/05 00:36:44;;;;;;;35.95;20.77;;;;;;;11.52;100.00;101325.22;5073521;28;20078;-71
2021/09/05 00:39:11;;;;;;;33.60;20.20;;;;;;;11.40;100.00;101331.13;5066222;28;20238;-72
2021/09/05 00:41:38;;;;;;;33.10;20.48;;;;;;;11.26;100.00;101328.34;5069451;28;20427;-72
2021/09/05 00:44:08;;;;;;;38.20;22.08;;;;;;;11.29;100.00;101331.66;5044033;28;20053;-71
2021/09/05 00:46:36;;;;;;;38.50;22.55;;;;;;;11.58;100.00;101332.81;5041497;28;20115;-71
2021/09/05 00:49:05;;;;;;;30.08;19.42;;;;;;;11.71;100.00;101334.78;5037942;28;20049;-71
2021/09/05 00:51:38;;;;;;;40.58;22.73;;;;;;;11.53;100.00;101341.91;5039610;28;20072;-70
2021/09/05 00:54:07;;;;;;;34.35;21.38;;;;;;;11.45;100.00;101338.81;5051040;28;20077;-70
2021/09/05 00:56:36;;;;;;;33.65;21.92;;;;;;;11.44;100.00;101335.31;5042283;28;20099;-70
2021/09/05 00:59:10;;;;;;;37.55;23.27;;;;;;;11.29;100.00;101336.94;5057052;28;20052;-71
2021/09/05 01:01:39;;;;;;;38.03;22.80;;;;;;;11.35;100.00;101338.44;5082392;28;20036;-70
2021/09/05 01:04:07;;;;;;;36.17;22.08;;;;;;;11.31;100.00;101334.25;5047645;28;20572;-73
2021/09/05 01:06:35;;;;;;;39.13;22.73;;;;;;;11.21;100.00;101336.47;5074396;28;20492;-70
2021/09/05 01:09:03;;;;;;;39.25;22.70;;;;;;;11.14;100.00;101340.34;5068697;28;20044;-72
2021/09/05 01:11:33;;;;;;;37.97;23.27;;;;;;;11.11;100.00;101333.44;5073662;28;20041;-71
2021/09/05 01:14:05;;;;;;;42.40;24.92;;;;;;;11.05;100.00;101336.38;5042273;28;20083;-70
2021/09/05 01:16:37;;;;;;;34.55;22.95;;;;;;;11.28;100.00;101335.22;5051015;28;20456;-69
2021/09/05 01:19:11;;;;;;;40.75;24.17;;;;;;;11.37;100.00;101342.66;5039311;28;20064;-71
2021/09/05 01:21:39;;;;;;;37.50;23.17;;;;;;;11.30;100.00;101335.13;5074905;28;20462;-70
2021/09/05 01:24:07;;;;;;;42.53;24.85;;;;;;;11.20;100.00;101345.31;5074919;28;20379;-72
2021/09/05 01:26:37;;;;;;;36.38;24.58;;;;;;;11.27;100.00;101345.88;5041160;28;20040;-71
2021/09/05 01:29:05;;;;;;;36.20;24.38;;;;;;;11.27;100.00;101343.22;5033765;28;20048;-70
2021/09/05 01:31:42;;;;;;;39.35;22.92;;;;;;;11.27;100.00;101354.63;5053603;23;20079;-83
2021/09/05 01:34:15;;;;;;;44.38;25.02;;;;;;;11.16;100.00;101352.50;5058752;28;20650;-81
2021/09/05 01:36:43;;;;;;;40.65;26.33;;;;;;;11.28;100.00;101345.78;5092678;28;20041;-82
2021/09/05 01:39:12;;;;;;;48.50;26.77;;;;;;;11.21;100.00;101352.28;5053245;28;20052;-81
2021/09/05 01:41:40;;;;;;;46.67;25.88;;;;;;;11.29;100.00;101349.25;5058085;28;20522;-82
2021/09/05 01:44:16;;;;;;;;;;;;;;;11.26;100.00;101352.91;5064818;28;20048;-83
2021/09/05 01:46:43;;;;;;;37.08;24.27;;;;;;;11.15;100.00;101349.94;5072111;28;19925;-83
2021/09/05 01:49:10;;;;;;;42.17;23.83;;;;;;;11.07;100.00;101352.97;5060571;28;20066;-81
2021/09/05 01:51:38;;;;;;;38.72;24.85;;;;;;;11.31;100.00;101350.91;5040239;28;20148;-82
2021/09/05 01:54:05;;;;;;;36.67;25.25;;;;;;;11.15;100.00;101350.81;5056974;28;20048;-83
2021/09/05 01:56:34;;;;;;;39.53;23.77;;;;;;;11.22;100.00;101353.16;5066489;28;20048;-81
2021/09/05 01:59:05;;;;;;;42.17;24.80;;;;;;;11.23;100.00;101352.22;5056079;28;20099;-81
2021/09/05 02:01:33;;;;;;;41.63;24.17;;;;;;;11.22;100.00;101353.16;5087418;28;20045;-82
2021/09/05 02:04:03;;;;;;;49.30;26.55;;;;;;;11.34;100.00;101361.28;5068357;28;20048;-81
2021/09/05 02:06:39;;;;;;;42.13;27.20;;;;;;;11.51;100.00;101362.22;5054375;28;20049;-83
2021/09/05 02:09:06;;;;;;;47.55;28.33;;;;;;;11.72;100.00;101360.25;5077180;28;20410;-83
2021/09/05 02:11:34;;;;;;;51.00;28.08;;;;;;;11.70;100.00;101370.88;5064669;28;20052;-81
2021/09/05 02:14:02;;;;;;;56.50;30.83;;;;;;;11.99;100.00;101373.84;5062164;28;20116;-83
2021/09/05 02:16:30;;;;;;;51.75;30.00;;;;;;;11.97;100.00;101373.03;5050511;28;20044;-83
2021/09/05 02:18:57;;;;;;;54.92;29.92;;;;;;;12.03;100.00;101378.00;5049714;28;20048;-81
2021/09/05 02:21:27;;;;;;;56.42;31.75;;;;;;;11.97;100.00;101376.53;5077395;28;20049;-83
2021/09/05 02:23:54;;;;;;;60.30;33.80;;;;;;;12.06;100.00;101377.84;5055774;28;20406;-82
2021/09/05 02:26:24;;;;;;;59.03;31.92;;;;;;;12.04;100.00;101385.84;5068399;28;20047;-80
2021/09/05 02:28:51;;;;;;;54.58;32.03;;;;;;;11.94;100.00;101383.78;5065673;28;20029;-80
2021/09/05 02:31:18;;;;;;;55.15;32.17;;;;;;;11.87;100.00;101386.72;5080342;28;20047;-81
2021/09/05 02:33:46;;;;;;;53.85;32.13;;;;;;;11.84;100.00;101391.28;5083102;28;20139;-80
2021/09/05 02:36:13;;;;;;;54.95;31.85;;;;;;;11.89;100.00;101387.50;5073983;28;20052;-81
2021/09/05 02:38:40;;;;;;;55.45;30.90;;;;;;;12.07;100.00;101392.75;5080332;28;20639;-79
2021/09/05 02:41:09;;;;;;;55.63;32.55;;;;;;;12.08;100.00;101395.31;5083157;28;20087;-81
2021/09/05 02:43:36;;;;;;;61.80;35.95;;;;;;;12.06;100.00;101394.50;5087523;28;20153;-79
2021/09/05 02:46:03;;;;;;;58.03;33.47;;;;;;;12.09;100.00;101390.88;5059712;28;20049;-81
2021/09/05 02:48:34;;;;;;;58.42;34.28;;;;;;;12.13;100.00;101398.56;5078213;28;20060;-82
2021/09/05 02:51:01;;;;;;;63.60;33.88;;;;;;;12.12;100.00;101388.09;5075633;28;20036;-83
2021/09/05 02:53:38;;;;;;;66.80;35.28;;;;;;;12.12;100.00;101398.63;5057429;28;20048;-82
2021/09/05 02:56:07;;;;;;;57.08;32.72;;;;;;;12.08;100.00;101397.94;5035959;28;20041;-82
2021/09/05 02:58:34;;;;;;;56.30;31.48;;;;;;;12.12;100.00;101398.63;5087911;28;20479;-83
2021/09/05 03:01:05;;;;;;;54.25;31.13;;;;;;;12.11;100.00;101403.06;5064837;28;20105;-82
2021/09/05 03:03:33;;;;;;;49.25;30.83;;;;;;;12.16;100.00;101408.94;5074046;28;20260;-82
2021/09/05 03:06:00;;;;;;;44.65;27.85;;;;;;;12.19;100.00;101407.06;5098483;28;20056;-81
2021/09/05 03:08:28;;;;;;;47.53;28.65;;;;;;;12.23;100.00;101406.81;5082705;28;20072;-83
2021/09/05 03:11:00;;;;;;;46.63;27.55;;;;;;;12.16;100.00;101410.75;5041464;28;20188;-84
2021/09/05 03:13:27;;;;;;;44.35;29.45;;;;;;;12.13;100.00;101410.91;5050765;28;20049;-83
2021/09/05 03:15:55;;;;;;;48.15;28.45;;;;;;;12.11;100.00;101405.72;5053960;28;20040;-83
2021/09/05 03:18:26;;;;;;;46.88;27.70;;;;;;;12.01;100.00;101415.03;5043082;28;20147;-83
2021/09/05 03:20:53;;;;;;;52.50;30.33;;;;;;;12.06;100.00;101410.34;5084460;28;20053;-81
2021/09/05 03:23:20;;;;;;;43.80;27.02;;;;;;;12.09;100.00;101412.00;5080714;28;20068;-81
2021/09/05 03:25:47;;;;;;;44.67;27.38;;;;;;;12.02;100.00;101416.75;5084891;28;20035;-81
2021/09/05 03:28:15;;;;;;;42.47;27.52;;;;;;;11.97;100.00;101416.09;5098991;28;20142;-82
2021/09/05 03:30:42;;;;;;;41.75;25.33;;;;;;;11.90;100.00;101410.31;5088748;28;20087;-80
2021/09/05 03:33:09;;;;;;;38.55;26.17;;;;;;;11.89;100.00;101410.41;5074224;28;20066;-81
2021/09/05 03:35:44;;;;;;;41.03;27.30;;;;;;;11.82;100.00;101412.50;5043375;28;20037;-81
2021/09/05 03:38:12;;;;;;;43.20;26.58;;;;;;;11.68;100.00;101411.47;5087898;28;20059;-82
2021/09/05 03:40:39;;;;;;;39.40;25.83;;;;;;;11.55;100.00;101412.06;5083023;28;20072;-80
2021/09/05 03:43:06;;;;;;;41.20;25.65;;;;;;;11.61;100.00;101411.75;5074047;28;20064;-83
2021/09/05 03:45:37;;;;;;;45.70;25.55;;;;;;;11.57;100.00;101415.50;5055949;28;20042;-83
2021/09/05 03:48:04;;;;;;;36.50;26.38;;;;;;;11.57;100.00;101410.25;5064776;28;20041;-79
2021/09/05 03:50:31;;;;;;;41.90;26.33;;;;;;;11.44;100.00;101414.41;5083214;28;20036;-80
2021/09/05 03:52:58;;;;;;;42.63;25.67;;;;;;;11.36;100.00;101419.22;5064238;28;20108;-82
2021/09/05 03:55:30;;;;;;;38.65;24.70;;;;;;;11.36;100.00;101414.78;5077329;28;20049;-82
2021/09/05 03:58:02;;;;;;;40.67;26.35;;;;;;;11.23;100.00;101418.09;5066312;28;20051;-81
2021/09/05 04:00:29;;;;;;;39.15;25.25;;;;;;;11.22;100.00;101426.94;5066151;28;20529;-82
2021/09/05 04:02:58;;;;;;;37.20;26.17;;;;;;;11.13;100.00;101433.50;5063842;28;20045;-82
2021/09/05 04:05:25;;;;;;;42.00;26.30;;;;;;;11.11;100.00;101433.56;5074418;28;20036;-82
2021/09/05 04:10:34;;;;;;;34.42;23.65;;;;;;;11.12;100.00;101437.06;5098225;27;20060;-81
2021/09/05 04:13:02;;;;;;;35.38;21.85;;;;;;;11.22;100.00;101427.78;5061006;28;20076;-82
2021/09/05 04:15:38;;;;;;;38.40;22.83;;;;;;;11.21;100.00;101435.75;5074200;27;20025;-79
2021/09/05 04:18:06;;;;;;;36.03;21.88;;;;;;;11.25;100.00;101432.91;5089589;28;20064;-81
2021/09/05 04:20:36;;;;;;;27.60;21.15;;;;;;;11.24;100.00;101432.97;5076969;28;20025;-82
2021/09/05 04:23:06;;;;;;;32.13;21.70;;;;;;;11.20;100.00;101436.69;5060985;28;20067;-81
2021/09/05 04:25:58;;;;;;;42.65;22.00;;;;;;;11.22;100.00;101432.22;5084774;28;20025;-80
2021/09/05 04:28:45;;;;;;;30.33;20.67;;;;;;;11.25;100.00;101437.31;5078243;28;20045;-79
2021/09/05 04:31:12;;;;;;;27.50;20.65;;;;;;;11.24;100.00;101441.75;5088363;28;20040;-80
2021/09/05 04:33:39;;;;;;;30.58;20.67;;;;;;;11.33;100.00;101446.56;5092668;28;20072;-79
2021/09/05 04:36:09;;;;;;;30.50;19.92;;;;;;;11.44;100.00;101450.44;5083727;28;20043;-80
2021/09/05 04:38:39;;;;;;;26.75;19.77;;;;;;;11.45;100.00;101442.47;5072198;28;20048;-80
2021/09/05 04:41:07;;;;;;;27.75;17.83;;;;;;;11.52;100.00;101443.00;5085843;28;20079;-84
2021/09/05 04:43:35;;;;;;;29.20;18.25;;;;;;;11.54;100.00;101451.72;5086976;28;20059;-83
2021/09/05 04:46:02;;;;;;;25.98;16.95;;;;;;;11.57;100.00;101446.28;5057434;28;20068;-80
2021/09/05 04:48:30;;;;;;;28.02;17.80;;;;;;;11.66;100.00;101454.59;5027616;28;20047;-82
2021/09/05 04:50:57;;;;;;;25.58;16.55;;;;;;;11.77;100.00;101456.69;5095497;28;20070;-81
2021/09/05 04:53:25;;;;;;;24.60;15.73;;;;;;;11.74;100.00;101459.47;5054439;28;20075;-82
2021/09/05 04:55:54;;;;;;;27.33;16.90;;;;;;;11.86;100.00;101465.97;5058812;28;20037;-82
2021/09/05 04:58:21;;;;;;;27.38;15.27;;;;;;;11.86;100.00;101471.22;5054624;28;20150;-83
2021/09/05 05:01:05;;;;;;;25.92;15.75;;;;;;;11.84;100.00;101467.81;5088270;28;20063;-80
2021/09/05 05:03:46;;;;;;;25.75;16.55;;;;;;;11.85;100.00;101464.25;5056401;28;20040;-80
2021/09/05 05:06:33;;;;;;;21.52;15.85;;;;;;;11.90;100.00;101478.06;5097871;28;20081;-81
2021/09/05 05:09:01;;;;;;;21.23;14.20;;;;;;;11.98;100.00;101475.00;5072974;28;20051;-81
2021/09/05 05:11:28;;;;;;;26.45;16.48;;;;;;;12.02;100.00;101474.81;5080468;28;20519;-82
2021/09/05 05:13:55;;;;;;;23.42;14.65;;;;;;;12.12;100.00;101477.81;5084835;28;20063;-80
2021/09/05 05:16:23;;;;;;;24.17;15.82;;;;;;;12.10;100.00;101480.53;5074521;28;20048;-81
2021/09/05 05:18:50;;;;;;;26.10;15.43;;;;;;;12.11;100.00;101490.16;5083985;28;20051;-83
2021/09/05 05:21:20;;;;;;;23.95;16.10;;;;;;;12.09;100.00;101492.00;5058046;28;20048;-79
2021/09/05 05:23:47;;;;;;;20.48;14.60;;;;;;;12.18;100.00;101497.75;5065512;28;20382;-82
2021/09/05 05:26:14;;;;;;;25.58;15.70;;;;;;;12.24;100.00;101495.63;5057326;28;20052;-81
2021/09/05 05:28:42;;;;;;;22.45;14.93;;;;;;;12.24;100.00;101500.06;5085431;28;20176;-81
2021/09/05 05:31:10;;;;;;;19.85;13.75;;;;;;;12.18;100.00;101501.25;5064786;28;20087;-82
2021/09/05 05:33:38;;;;;;;26.48;14.07;;;;;;;12.24;100.00;101505.34;5097990;28;20036;-80
2021/09/05 05:36:16;;;;;;;22.77;13.45;;;;;;;12.32;100.00;101509.31;5085698;28;20043;-81
2021/09/05 05:38:45;;;;;;;23.05;13.20;;;;;;;12.36;100.00;101504.72;5086474;28;20048;-82
2021/09/05 05:41:15;;;;;;;16.83;11.13;;;;;;;12.38;100.00;101514.28;5050567;28;20068;-83
2021/09/05 05:43:42;;;;;;;19.27;12.05;;;;;;;12.39;100.00;101515.13;5076851;28;20440;-82
2021/09/05 05:46:11;;;;;;;22.65;12.10;;;;;;;12.45;100.00;101521.88;5096798;28;20051;-81
2021/09/05 05:48:38;;;;;;;17.88;11.32;;;;;;;12.37;100.00;101514.34;5059513;28;20083;-84
2021/09/05 05:51:05;;;;;;;16.73;9.75;;;;;;;12.35;100.00;101524.16;5040752;28;20053;-83
2021/09/05 05:53:33;;;;;;;17.45;10.48;;;;;;;12.44;100.00;101522.81;5073964;28;20064;-82
2021/09/05 05:56:06;;;;;;;19.05;10.13;;;;;;;12.41;100.00;101518.53;5076770;28;20700;-80
2021/09/05 05:58:33;;;;;;;16.77;10.65;;;;;;;12.54;100.00;101516.97;5081184;28;20048;-82
2021/09/05 06:01:09;;;;;;;17.27;10.50;;;;;;;12.73;100.00;101521.25;5056484;28;20552;-85
2021/09/05 06:03:37;;;;;;;16.38;9.73;;;;;;;12.95;99.59;101521.81;5066081;28;20044;-83
2021/09/05 06:06:08;;;;;;;15.98;9.57;;;;;;;12.98;99.27;101534.00;5069558;28;20052;-82
2021/09/05 06:08:37;;;;;;;12.05;7.90;;;;;;;12.96;99.23;101528.78;5081785;28;20472;-80
2021/09/05 06:11:04;;;;;;;11.20;8.32;;;;;;;13.04;97.76;101536.31;5051924;28;20041;-83
2021/09/05 06:13:32;;;;;;;12.60;7.82;;;;;;;13.03;97.00;101539.91;5065694;28;20051;-83
2021/09/05 06:15:59;;;;;;;11.40;7.85;;;;;;;12.96;97.54;101535.88;5065390;28;20049;-82
2021/09/05 06:18:27;;;;;;;13.63;7.80;;;;;;;13.20;96.24;101536.34;5075925;28;20045;-83
2021/09/05 06:20:54;;;;;;;12.35;7.60;;;;;;;13.25;96.07;101535.16;5087106;28;20036;-82
2021/09/05 06:23:36;;;;;;;12.98;8.15;;;;;;;13.52;93.62;101532.75;5052332;28;20745;-81
2021/09/05 06:26:03;;;;;;;11.82;7.95;;;;;;;13.76;91.61;101537.59;5082499;28;20067;-81
2021/09/05 06:28:31;;;;;;;11.38;7.10;;;;;;;14.13;88.11;101531.84;5065553;28;20056;-82
2021/09/05 06:30:59;;;;;;;9.68;6.88;;;;;;;14.37;86.11;101539.28;5078684;28;20029;-80
2021/09/05 06:33:27;;;;;;;12.25;6.93;;;;;;;14.67;83.60;101540.06;5063477;28;20352;-80
2021/09/05 06:35:54;;;;;;;12.32;7.15;;;;;;;15.08;83.30;101551.69;5080091;28;20024;-80
2021/09/05 06:38:21;;;;;;;11.20;6.85;;;;;;;15.02;80.49;101552.09;5084762;28;20074;-84
2021/09/05 06:40:52;;;;;;;10.35;6.68;;;;;;;15.51;79.49;101554.28;5076924;28;20059;-83
2021/09/05 06:43:19;;;;;;;9.48;6.32;;;;;;;15.94;74.83;101555.00;5068257;28;20044;-82
2021/09/05 06:45:47;;;;;;;10.95;5.68;;;;;;;16.76;72.41;101551.19;5092467;28;20076;-83
2021/09/05 06:48:35;;;;;;;10.98;5.93;;;;;;;17.32;68.38;101548.06;5080059;28;20036;-82
2021/09/05 06:51:06;;;;;;;9.88;5.90;;;;;;;17.90;66.64;101544.66;5060547;28;20040;-81
2021/09/05 06:53:33;;;;;;;9.15;5.85;;;;;;;18.34;64.00;101542.25;5086245;28;21135;-82
2021/09/05 06:56:00;;;;;;;10.68;5.93;;;;;;;19.49;60.59;101549.97;5085500;28;20059;-80
2021/09/05 06:58:28;;;;;;;10.77;6.05;;;;;;;20.51;55.33;101545.91;5078242;28;20055;-81
2021/09/05 07:00:59;;;;;;;9.18;5.90;;;;;;;20.79;54.97;101539.00;5067701;28;20093;-81
2021/09/05 07:03:28;;;;;;;6.60;5.28;;;;;;;21.43;52.26;101546.72;5069225;28;20048;-81
2021/09/05 07:05:55;;;;;;;9.50;5.93;;;;;;;22.00;51.11;101545.03;5060935;28;20082;-82
2021/09/05 07:08:23;;;;;;;13.20;5.57;;;;;;;20.40;54.69;101548.66;5091002;28;20108;-81
2021/09/05 07:10:51;;;;;;;11.10;5.68;;;;;;;20.76;53.57;101551.81;5066153;28;20067;-82
2021/09/05 07:13:20;;;;;;;8.77;5.82;;;;;;;20.81;53.29;101558.47;5087310;28;20091;-82
2021/09/05 07:15:54;;;;;;;8.93;6.35;;;;;;;20.69;53.16;101557.69;5062776;28;20043;-82
2021/09/05 07:18:22;;;;;;;8.90;5.88;;;;;;;20.14;55.12;101565.06;5091340;28;20048;-83
2021/09/05 07:20:50;;;;;;;12.77;6.80;;;;;;;21.05;53.02;101573.34;5077378;28;20518;-80
2021/09/05 07:23:18;;;;;;;9.52;6.43;;;;;;;20.26;53.78;101568.50;5058871;28;20055;-80
2021/09/05 07:25:47;;;;;;;9.02;5.82;;;;;;;20.43;53.61;101561.75;5062502;28;20051;-81
2021/09/05 07:28:15;;;;;;;11.23;6.55;;;;;;;20.78;52.96;101561.41;5066341;28;20067;-82
2021/09/05 07:30:45;;;;;;;13.30;7.00;;;;;;;22.31;48.83;101573.56;5062321;28;20128;-81
2021/09/05 07:33:12;;;;;;;9.13;6.63;;;;;;;22.89;47.47;101568.91;5069919;28;20063;-82
2021/09/05 07:35:40;;;;;;;11.85;6.05;;;;;;;23.24;46.54;101581.59;5079356;28;20100;-85
2021/09/05 07:38:07;;;;;;;8.27;5.97;;;;;;;22.36;48.30;101577.47;5089652;28;20045;-83
2021/09/05 07:40:35;;;;;;;13.43;6.63;;;;;;;21.28;50.89;101579.34;5088332;28;20040;-83
2021/09/05 07:43:03;;;;;;;12.15;6.38;;;;;;;21.79;50.21;101581.00;5094081;28;20094;-82
2021/09/05 07:45:30;;;;;;;8.98;6.07;;;;;;;22.20;49.09;101579.94;5091208;28;20108;-82
2021/09/05 07:47:59;;;;;;;10.45;6.18;;;;;;;21.71;50.47;101579.03;5065892;28;20112;-84
2021/09/05 07:50:26;;;;;;;14.20;6.65;;;;;;;22.61;47.61;101575.19;5072431;28;20051;-81
2021/09/05 07:52:53;;;;;;;9.85;5.43;;;;;;;22.62;48.02;101583.09;5077174;28;20045;-82
2021/09/05 07:55:21;;;;;;;9.30;5.85;;;;;;;22.32;48.45;101580.59;5069974;28;20098;-82
2021/09/05 07:57:48;;;;;;;16.50;7.28;;;;;;;23.27;46.01;101583.13;5071226;28;20409;-84
2021/09/05 08:00:19;;;;;;;11.32;6.70;;;;;;;22.35;48.23;101585.69;5083565;28;20056;-82
2021/09/05 08:02:47;;;;;;;19.95;8.77;;;;;;;21.16;51.98;101592.84;5067551;28;20060;-82
2021/09/05 08:05:14;;;;;;;14.13;7.57;;;;;;;20.82;52.94;101594.94;5040436;28;20060;-83
2021/09/05 08:07:43;;;;;;;10.98;7.20;;;;;;;20.51;53.34;101602.09;5072791;28;20029;-80
2021/09/05 08:10:11;;;;;;;14.05;6.47;;;;;;;19.87;56.42;101605.66;5089577;28;20075;-83
2021/09/05 08:12:39;;;;;;;8.82;6.03;;;;;;;21.34;51.41;101601.09;5090761;28;20037;-84
2021/09/05 08:15:07;;;;;;;9.07;6.28;;;;;;;20.45;54.49;101606.13;5075220;28;20051;-83
2021/09/05 08:17:34;;;;;;;11.88;6.80;;;;;;;20.52;53.92;101611.81;5060591;28;20060;-81
2021/09/05 08:20:02;;;;;;;9.55;6.65;;;;;;;22.20;50.30;101609.44;5083977;28;20068;-81
2021/09/05 08:22:30;;;;;;;10.45;6.82;;;;;;;21.78;50.29;101606.97;5071534;28;20036;-81
2021/09/05 08:24:57;;;;;;;20.33;8.38;;;;;;;20.83;53.00;101617.19;5055038;28;20124;-79
2021/09/05 08:27:25;;;;;;;8.75;6.90;;;;;;;20.71;54.10;101619.97;5083219;28;20056;-80
2021/09/05 08:29:52;;;;;;;15.20;7.28;;;;;;;20.44;55.00;101617.78;5069587;28;20043;-80
2021/09/05 08:32:19;;;;;;;13.13;7.45;;;;;;;20.59;55.12;101613.00;5090740;28;20051;-79
2021/09/05 08:34:48;;;;;;;16.02;8.38;;;;;;;19.51;58.00;101624.66;5051881;28;20032;-81
2021/09/05 08:37:15;;;;;;;11.43;7.60;;;;;;;20.21;55.60;101627.72;5078778;28;20064;-80
2021/09/05 08:39:43;;;;;;;11.85;7.53;;;;;;;19.96;56.79;101628.94;5052901;28;20104;-80
2021/09/05 08:42:10;;;;;;;12.07;6.57;;;;;;;20.32;56.24;101624.16;5094411;28;20052;-81
2021/09/05 08:44:38;;;;;;;15.63;7.75;;;;;;;20.07;57.35;101624.53;5069739;28;20028;-80
2021/09/05 08:47:05;;;;;;;15.15;7.85;;;;;;;20.35;55.88;101628.41;5081260;28;20029;-81
2021/09/05 08:49:33;;;;;;;10.75;7.97;;;;;;;19.89;57.30;101626.88;5059374;28;20075;-81
2021/09/05 08:52:06;;;;;;;16.33;8.10;;;;;;;19.57;58.32;101633.00;5048966;28;20743;-79
2021/09/05 08:54:33;;;;;;;12.48;7.43;;;;;;;19.47;59.22;101632.06;5056531;28;20036;-81
2021/09/05 08:57:02;;;;;;;12.35;7.88;;;;;;;19.88;58.37;101633.22;5047955;28;20128;-81
2021/09/05 08:59:29;;;;;;;11.77;8.43;;;;;;;20.10;57.40;101634.97;5067832;28;20126;-81
2021/09/05 09:02:01;;;;;;;12.45;8.05;;;;;;;20.65;57.21;101638.38;5084389;28;20099;-80
2021/09/05 09:04:38;;;;;;;11.00;7.78;;;;;;;20.93;55.59;101634.16;5038367;28;20129;-80
2021/09/05 09:07:10;;;;;;;12.52;8.20;;;;;;;20.21;57.30;101641.09;5043448;28;20124;-79
2021/09/05 09:09:49;;;;;;;13.30;8.52;;;;;;;19.93;58.09;101639.03;5042801;28;20052;-81
2021/09/05 09:12:16;;;;;;;13.05;8.60;;;;;;;19.68;60.01;101640.19;5072826;28;20104;-80
2021/09/05 09:14:45;;;;;;;14.00;8.65;;;;;;;20.12;58.82;101647.22;5052434;28;20425;-81
2021/09/05 09:17:15;;;;;;;17.48;9.60;;;;;;;20.03;59.12;101639.97;5066837;28;20040;-80
2021/09/05 09:19:50;;;;;;;13.93;9.02;;;;;;;20.06;58.84;101638.88;5050422;28;20045;-81
2021/09/05 09:22:19;;;;;;;12.75;8.63;;;;;;;19.89;59.13;101649.13;5072611;28;20106;-81
2021/09/05 09:24:47;;;;;;;14.60;8.18;;;;;;;19.93;58.69;101639.88;5072034;28;20084;-82
2021/09/05 09:27:15;;;;;;;12.85;7.97;;;;;;;19.60;59.62;101638.13;5068893;28;20071;-81
2021/09/05 09:29:43;;;;;;;11.50;8.20;;;;;;;19.56;59.87;101642.00;5045993;28;20094;-81
2021/09/05 09:32:17;;;;;;;13.98;10.05;;;;;;;19.06;61.05;101638.88;5076923;28;20076;-82
2021/09/05 09:34:48;;;;;;;13.43;8.77;;;;;;;19.21;61.15;101634.97;5070426;28;21065;-81
2021/09/05 09:37:22;;;;;;;14.02;8.40;;;;;;;19.09;60.92;101643.97;5028741;28;20111;-80
2021/09/05 09:39:51;;;;;;;13.45;8.57;;;;;;;18.85;62.20;101645.88;5058905;28;20479;-81
2021/09/05 09:42:35;;;;;;;14.63;8.70;;;;;;;19.00;61.40;101633.16;5041889;28;20105;-79
2021/09/05 09:45:11;;;;;;;17.15;10.00;;;;;;;18.76;61.70;101647.44;5033067;28;20143;-81
2021/09/05 09:47:45;;;;;;;15.38;10.18;;;;;;;19.02;61.73;101641.91;5063654;28;20095;-79
2021/09/05 09:50:15;;;;;;;16.45;9.88;;;;;;;19.09;61.78;101629.75;5058448;28;20110;-81
2021/09/05 09:52:46;;;;;;;21.15;9.93;;;;;;;19.45;60.10;101633.97;5048501;23;20367;-67
2021/09/05 09:55:13;;;;;;;15.45;10.27;;;;;;;19.42;60.08;101634.25;5012782;28;20172;-67
2021/09/05 09:57:40;;;;;;;14.35;8.82;;;;;;;19.31;60.88;101637.75;5055516;28;20037;-69
2021/09/05 10:00:09;;;;;;;16.38;9.45;;;;;;;19.17;60.78;101625.50;5046923;28;20073;-68
2021/09/05 10:02:43;;;;;;;16.02;11.50;;;;;;;18.92;61.77;101626.63;5035632;28;20057;-67
2021/09/05 10:05:11;;;;;;;19.73;10.95;;;;;;;19.19;61.71;101618.25;5034262;28;20071;-66
2021/09/05 10:07:39;;;;;;;14.18;10.02;;;;;;;19.08;61.56;101618.22;5044315;28;20140;-66
2021/09/05 10:10:07;;;;;;;13.52;10.32;;;;;;;19.14;61.34;101625.78;5017645;28;20136;-67
2021/09/05 10:12:35;;;;;;;35.03;17.65;;;;;;;19.28;60.78;101630.03;5011496;28;20136;-66
2021/09/05 10:15:03;;;;;;;17.05;10.07;;;;;;;19.44;60.63;101624.28;5022763;28;20160;-68
2021/09/05 10:17:31;;;;;;;17.17;9.57;;;;;;;19.93;59.40;101618.50;5050770;28;20075;-68
2021/09/05 10:20:00;;;;;;;16.38;9.50;;;;;;;20.08;57.40;101627.06;5033542;28;20101;-67
2021/09/05 10:22:31;;;;;;;16.17;9.95;;;;;;;20.32;57.78;101623.31;5046858;28;20080;-68
2021/09/05 10:25:03;;;;;;;14.75;10.05;;;;;;;20.59;57.82;101617.50;5009034;28;20079;-68
2021/09/05 10:27:34;;;;;;;16.75;9.23;;;;;;;21.20;55.01;101614.81;5015814;28;20538;-68
2021/09/05 10:30:06;;;;;;;14.50;9.13;;;;;;;20.11;56.98;101620.63;5056693;28;20128;-68
2021/09/05 10:32:48;;;;;;;13.55;8.75;;;;;;;19.98;58.11;101613.59;5032731;28;20608;-68
2021/09/05 10:35:23;;;;;;;16.75;9.25;;;;;;;19.72;59.55;101612.22;5049638;28;20049;-69
2021/09/05 10:38:09;;;;;;;14.00;8.90;;;;;;;19.85;59.09;101620.09;5035316;28;20415;-68
2021/09/05 10:40:39;;;;;;;;;;;;;;;19.69;59.98;101605.34;5048294;28;20055;-68
2021/09/05 10:43:06;;;;;;;15.40;8.63;;;;;;;20.06;58.66;101609.47;5036278;28;19967;-67
2021/09/05 10:45:35;;;;;;;15.93;9.15;;;;;;;20.35;58.20;101599.81;5051002;28;20140;-66
2021/09/05 10:48:23;;;;;;;18.75;9.35;;;;;;;20.04;58.24;101608.72;5021499;28;20143;-68
2021/09/05 10:50:50;;;;;;;14.52;8.38;;;;;;;20.66;57.43;101602.59;5050116;28;20045;-68
2021/09/05 10:53:20;;;;;;;13.30;8.50;;;;;;;20.87;56.82;101606.09;5027010;28;20057;-68
2021/09/05 10:56:06;;;;;;;15.23;9.43;;;;;;;20.07;58.51;101608.47;5021713;28;20122;-67
2021/09/05 10:58:40;;;;;;;15.82;10.02;;;;;;;20.14;58.75;101610.53;5042776;28;20053;-68
2021/09/05 11:01:20;;;;;;;11.95;8.05;;;;;;;20.14;58.28;101609.69;5029396;28;20053;-68
2021/09/05 11:04:09;;;;;;;13.05;8.95;;;;;;;20.12;59.52;101609.78;5046247;28;20408;-67
2021/09/05 11:06:46;;;;;;;14.40;8.02;;;;;;;20.46;58.15;101604.28;5043443;28;20094;-68
2021/09/05 11:11:52;;;;;;;14.57;9.43;;;;;;;21.18;56.53;101606.09;5047391;28;20567;-67
2021/09/05 11:14:19;;;;;;;11.63;7.95;;;;;;;21.54;54.84;101602.00;5021154;28;20052;-68
2021/09/05 11:16:46;;;;;;;12.45;8.07;;;;;;;21.66;54.15;101597.34;5034500;28;20164;-67
2021/09/05 11:19:19;;;;;;;14.20;7.97;;;;;;;21.36;54.88;101600.97;5005563;28;20081;-67
2021/09/05 11:21:46;;;;;;;12.70;8.18;;;;;;;21.47;54.95;101604.38;5042949;28;20135;-68
2021/09/05 11:24:14;;;;;;;14.00;8.93;;;;;;;21.47;54.52;101603.53;5028163;28;20064;-67
2021/09/05 11:27:06;;;;;;;12.23;8.32;;;;;;;21.26;55.06;101592.88;5043459;28;20048;-67